sensor_id;sensor_type;location;lat;lon;timestamp;P1;durP1;ratioP1;P2;durP2;ratioP2
8702;SDS011;9002;42.708;23.186;2024-03-23T00:54:40;17.55;;;9.75;;
8702;SDS011;9002;42.708;23.186;2024-03-23T00:57:08;22.08;;;10.30;;
8702;SDS011;9002;42.708;23.186;2024-03-23T00:59:34;20.08;;;10.88;;
8702;SDS011;9002;42.708;23.186;2024-03-23T01:02:01;20.55;;;11.60;;
8702;SDS011;9002;42.708;23.186;2024-03-23T01:04:27;19.30;;;10.80;;
8702;SDS011;9002;42.708;23.186;2024-03-23T01:06:54;17.42;;;11.02;;
8702;SDS011;9002;42.708;23.186;2024-03-23T01:09:20;18.42;;;9.85;;
8702;SDS011;9002;42.708;23.186;2024-03-23T01:11:49;19.48;;;10.38;;
8702;SDS011;9002;42.708;23.186;2024-03-23T01:14:15;17.20;;;9.85;;
8702;SDS011;9002;42.708;23.186;2024-03-23T01:16:42;16.17;;;9.55;;
8702;SDS011;9002;42.708;23.186;2024-03-23T01:19:08;16.77;;;10.93;;
8702;SDS011;9002;42.708;23.186;2024-03-23T01:21:35;19.10;;;9.98;;
8702;SDS011;9002;42.708;23.186;2024-03-23T01:24:01;16.20;;;9.98;;
8702;SDS011;9002;42.708;23.186;2024-03-23T01:26:28;21.20;;;10.63;;
8702;SDS011;9002;42.708;23.186;2024-03-23T01:28:55;19.98;;;10.93;;
8702;SDS011;9002;42.708;23.186;2024-03-23T01:31:22;21.05;;;11.77;;
8702;SDS011;9002;42.708;23.186;2024-03-23T01:33:48;16.75;;;9.65;;
8702;SDS011;9002;42.708;23.186;2024-03-23T01:36:15;22.05;;;11.70;;
8702;SDS011;9002;42.708;23.186;2024-03-23T01:38:41;17.30;;;9.65;;
8702;SDS011;9002;42.708;23.186;2024-03-23T01:41:08;17.65;;;10.27;;
8702;SDS011;9002;42.708;23.186;2024-03-23T01:43:33;20.55;;;10.65;;
8702;SDS011;9002;42.708;23.186;2024-03-23T01:46:02;17.20;;;10.38;;
8702;SDS011;9002;42.708;23.186;2024-03-23T01:48:28;15.80;;;11.35;;
8702;SDS011;9002;42.708;23.186;2024-03-23T01:50:55;19.50;;;9.77;;
8702;SDS011;9002;42.708;23.186;2024-03-23T01:53:24;20.48;;;9.95;;
8702;SDS011;9002;42.708;23.186;2024-03-23T01:55:51;20.55;;;10.73;;
8702;SDS011;9002;42.708;23.186;2024-03-23T01:58:17;17.60;;;10.60;;
8702;SDS011;9002;42.708;23.186;2024-03-23T02:00:44;16.70;;;8.35;;
8702;SDS011;9002;42.708;23.186;2024-03-23T02:03:23;16.88;;;9.48;;
8702;SDS011;9002;42.708;23.186;2024-03-23T02:05:50;14.73;;;7.75;;
8702;SDS011;9002;42.708;23.186;2024-03-23T02:08:18;13.68;;;7.10;;
8702;SDS011;9002;42.708;23.186;2024-03-23T02:10:46;14.77;;;8.73;;
8702;SDS011;9002;42.708;23.186;2024-03-23T02:13:13;13.90;;;9.10;;
8702;SDS011;9002;42.708;23.186;2024-03-23T02:15:40;12.52;;;7.45;;
8702;SDS011;9002;42.708;23.186;2024-03-23T02:18:07;12.43;;;7.28;;
8702;SDS011;9002;42.708;23.186;2024-03-23T02:20:36;14.45;;;8.85;;
8702;SDS011;9002;42.708;23.186;2024-03-23T02:23:04;11.63;;;7.20;;
8702;SDS011;9002;42.708;23.186;2024-03-23T02:25:32;13.95;;;7.40;;
8702;SDS011;9002;42.708;23.186;2024-03-23T02:27:58;11.68;;;7.25;;
8702;SDS011;9002;42.708;23.186;2024-03-23T02:30:25;14.93;;;8.63;;
8702;SDS011;9002;42.708;23.186;2024-03-23T02:32:51;13.73;;;8.00;;
8702;SDS011;9002;42.708;23.186;2024-03-23T02:35:19;13.82;;;7.88;;
8702;SDS011;9002;42.708;23.186;2024-03-23T02:37:46;11.82;;;7.63;;
8702;SDS011;9002;42.708;23.186;2024-03-23T02:42:51;14.15;;;7.35;;
8702;SDS011;9002;42.708;23.186;2024-03-23T02:45:18;14.10;;;7.68;;
8702;SDS011;9002;42.708;23.186;2024-03-23T02:47:44;15.25;;;8.15;;
8702;SDS011;9002;42.708;23.186;2024-03-23T02:50:11;15.00;;;8.35;;
8702;SDS011;9002;42.708;23.186;2024-03-23T02:52:37;14.70;;;8.63;;
8702;SDS011;9002;42.708;23.186;2024-03-23T02:55:04;14.27;;;8.45;;
8702;SDS011;9002;42.708;23.186;2024-03-23T02:57:30;16.52;;;8.82;;
8702;SDS011;9002;42.708;23.186;2024-03-23T02:59:59;14.75;;;8.05;;
8702;SDS011;9002;42.708;23.186;2024-03-23T03:02:25;13.40;;;8.10;;
8702;SDS011;9002;42.708;23.186;2024-03-23T03:04:52;14.45;;;8.35;;
8702;SDS011;9002;42.708;23.186;2024-03-23T03:07:18;13.85;;;8.10;;
8702;SDS011;9002;42.708;23.186;2024-03-23T03:09:44;13.20;;;8.07;;
8702;SDS011;9002;42.708;23.186;2024-03-23T03:12:10;16.70;;;8.05;;
8702;SDS011;9002;42.708;23.186;2024-03-23T03:14:37;14.60;;;9.70;;
8702;SDS011;9002;42.708;23.186;2024-03-23T03:17:05;13.95;;;8.10;;
8702;SDS011;9002;42.708;23.186;2024-03-23T03:19:31;11.15;;;7.00;;
8702;SDS011;9002;42.708;23.186;2024-03-23T03:21:57;13.32;;;8.00;;
8702;SDS011;9002;42.708;23.186;2024-03-23T03:24:24;12.52;;;7.95;;
8702;SDS011;9002;42.708;23.186;2024-03-23T03:26:50;18.33;;;7.88;;
8702;SDS011;9002;42.708;23.186;2024-03-23T03:29:17;14.13;;;8.23;;
8702;SDS011;9002;42.708;23.186;2024-03-23T03:31:43;12.48;;;7.13;;
8702;SDS011;9002;42.708;23.186;2024-03-23T03:34:12;13.23;;;6.75;;
8702;SDS011;9002;42.708;23.186;2024-03-23T03:36:38;10.75;;;6.75;;
8702;SDS011;9002;42.708;23.186;2024-03-23T03:39:05;10.55;;;6.70;;
8702;SDS011;9002;42.708;23.186;2024-03-23T03:41:31;13.80;;;7.47;;
8702;SDS011;9002;42.708;23.186;2024-03-23T03:43:58;11.18;;;6.60;;
8702;SDS011;9002;42.708;23.186;2024-03-23T03:46:27;12.35;;;7.05;;
8702;SDS011;9002;42.708;23.186;2024-03-23T03:48:54;13.65;;;8.55;;
8702;SDS011;9002;42.708;23.186;2024-03-23T03:51:21;11.30;;;7.13;;
8702;SDS011;9002;42.708;23.186;2024-03-23T03:53:48;12.90;;;7.32;;
8702;SDS011;9002;42.708;23.186;2024-03-23T03:56:14;14.93;;;7.30;;
8702;SDS011;9002;42.708;23.186;2024-03-23T03:58:41;11.60;;;6.68;;
8702;SDS011;9002;42.708;23.186;2024-03-23T04:01:07;14.20;;;7.60;;
8702;SDS011;9002;42.708;23.186;2024-03-23T04:03:34;14.98;;;8.40;;
8702;SDS011;9002;42.708;23.186;2024-03-23T04:06:00;11.75;;;7.03;;
8702;SDS011;9002;42.708;23.186;2024-03-23T04:08:31;13.32;;;7.13;;
8702;SDS011;9002;42.708;23.186;2024-03-23T04:10:57;14.93;;;8.30;;
8702;SDS011;9002;42.708;23.186;2024-03-23T04:13:24;17.35;;;7.88;;
8702;SDS011;9002;42.708;23.186;2024-03-23T04:15:53;11.27;;;7.75;;
8702;SDS011;9002;42.708;23.186;2024-03-23T04:18:20;12.32;;;7.57;;
8702;SDS011;9002;42.708;23.186;2024-03-23T04:20:46;12.07;;;8.02;;
8702;SDS011;9002;42.708;23.186;2024-03-23T04:23:13;15.65;;;9.00;;
8702;SDS011;9002;42.708;23.186;2024-03-23T04:25:41;13.02;;;8.00;;
8702;SDS011;9002;42.708;23.186;2024-03-23T04:28:08;11.90;;;6.32;;
8702;SDS011;9002;42.708;23.186;2024-03-23T04:30:34;14.35;;;8.00;;
8702;SDS011;9002;42.708;23.186;2024-03-23T04:33:02;13.23;;;6.93;;
8702;SDS011;9002;42.708;23.186;2024-03-23T04:35:28;12.95;;;7.78;;
8702;SDS011;9002;42.708;23.186;2024-03-23T04:37:55;16.20;;;7.57;;
8702;SDS011;9002;42.708;23.186;2024-03-23T04:40:23;12.27;;;7.35;;
8702;SDS011;9002;42.708;23.186;2024-03-23T04:42:52;11.85;;;7.65;;
8702;SDS011;9002;42.708;23.186;2024-03-23T04:45:19;11.60;;;7.15;;
8702;SDS011;9002;42.708;23.186;2024-03-23T04:47:46;12.30;;;7.50;;
8702;SDS011;9002;42.708;23.186;2024-03-23T04:50:13;14.32;;;7.15;;
8702;SDS011;9002;42.708;23.186;2024-03-23T04:52:40;12.23;;;6.20;;
8702;SDS011;9002;42.708;23.186;2024-03-23T04:55:07;12.63;;;7.30;;
8702;SDS011;9002;42.708;23.186;2024-03-23T04:57:33;10.68;;;6.68;;
8702;SDS011;9002;42.708;23.186;2024-03-23T05:00:01;11.70;;;7.22;;
8702;SDS011;9002;42.708;23.186;2024-03-23T05:02:29;14.68;;;7.10;;
8702;SDS011;9002;42.708;23.186;2024-03-23T05:04:57;12.77;;;7.93;;
8702;SDS011;9002;42.708;23.186;2024-03-23T05:07:23;12.85;;;6.30;;
8702;SDS011;9002;42.708;23.186;2024-03-23T05:09:50;13.40;;;6.25;;
8702;SDS011;9002;42.708;23.186;2024-03-23T05:12:16;11.10;;;6.03;;
8702;SDS011;9002;42.708;23.186;2024-03-23T05:14:42;10.05;;;5.40;;
8702;SDS011;9002;42.708;23.186;2024-03-23T05:17:10;9.18;;;5.70;;
8702;SDS011;9002;42.708;23.186;2024-03-23T05:19:37;8.30;;;6.13;;
8702;SDS011;9002;42.708;23.186;2024-03-23T05:22:03;10.27;;;6.15;;
8702;SDS011;9002;42.708;23.186;2024-03-23T05:24:30;12.43;;;7.55;;
8702;SDS011;9002;42.708;23.186;2024-03-23T05:26:56;10.70;;;5.32;;
8702;SDS011;9002;42.708;23.186;2024-03-23T05:29:24;10.27;;;6.25;;
8702;SDS011;9002;42.708;23.186;2024-03-23T05:31:51;11.13;;;6.20;;
8702;SDS011;9002;42.708;23.186;2024-03-23T05:34:21;10.88;;;6.15;;
8702;SDS011;9002;42.708;23.186;2024-03-23T05:36:47;10.75;;;6.60;;
8702;SDS011;9002;42.708;23.186;2024-03-23T05:39:14;10.88;;;7.03;;
8702;SDS011;9002;42.708;23.186;2024-03-23T05:41:41;11.90;;;6.63;;
8702;SDS011;9002;42.708;23.186;2024-03-23T05:46:36;11.40;;;5.93;;
8702;SDS011;9002;42.708;23.186;2024-03-23T05:49:03;15.38;;;8.02;;
8702;SDS011;9002;42.708;23.186;2024-03-23T05:51:31;17.27;;;8.18;;
8702;SDS011;9002;42.708;23.186;2024-03-23T05:53:57;14.88;;;9.18;;
8702;SDS011;9002;42.708;23.186;2024-03-23T05:56:24;10.00;;;6.20;;
8702;SDS011;9002;42.708;23.186;2024-03-23T05:58:51;13.43;;;8.15;;
8702;SDS011;9002;42.708;23.186;2024-03-23T06:01:18;14.18;;;8.27;;
8702;SDS011;9002;42.708;23.186;2024-03-23T06:03:44;10.18;;;6.63;;
8702;SDS011;9002;42.708;23.186;2024-03-23T06:06:11;14.00;;;7.85;;
8702;SDS011;9002;42.708;23.186;2024-03-23T06:08:39;12.48;;;7.95;;
8702;SDS011;9002;42.708;23.186;2024-03-23T06:11:06;12.60;;;7.32;;
8702;SDS011;9002;42.708;23.186;2024-03-23T06:13:32;14.07;;;8.05;;
8702;SDS011;9002;42.708;23.186;2024-03-23T06:16:00;12.70;;;7.57;;
8702;SDS011;9002;42.708;23.186;2024-03-23T06:18:26;14.20;;;8.00;;
8702;SDS011;9002;42.708;23.186;2024-03-23T06:20:53;13.45;;;7.35;;
8702;SDS011;9002;42.708;23.186;2024-03-23T06:23:19;13.80;;;7.70;;
8702;SDS011;9002;42.708;23.186;2024-03-23T06:25:47;13.82;;;7.50;;
8702;SDS011;9002;42.708;23.186;2024-03-23T06:28:13;14.82;;;9.25;;
8702;SDS011;9002;42.708;23.186;2024-03-23T06:30:40;13.82;;;8.20;;
8702;SDS011;9002;42.708;23.186;2024-03-23T06:33:07;13.70;;;7.82;;
8702;SDS011;9002;42.708;23.186;2024-03-23T06:35:37;15.32;;;7.90;;
8702;SDS011;9002;42.708;23.186;2024-03-23T06:38:03;15.27;;;8.63;;
8702;SDS011;9002;42.708;23.186;2024-03-23T06:40:30;14.50;;;8.85;;
8702;SDS011;9002;42.708;23.186;2024-03-23T06:42:57;13.25;;;7.82;;
8702;SDS011;9002;42.708;23.186;2024-03-23T06:45:24;15.35;;;9.00;;
8702;SDS011;9002;42.708;23.186;2024-03-23T06:47:50;21.08;;;9.55;;
8702;SDS011;9002;42.708;23.186;2024-03-23T06:50:18;17.75;;;10.25;;
8702;SDS011;9002;42.708;23.186;2024-03-23T06:52:45;14.77;;;8.82;;
8702;SDS011;9002;42.708;23.186;2024-03-23T06:55:11;13.40;;;8.88;;
8702;SDS011;9002;42.708;23.186;2024-03-23T06:57:38;14.85;;;8.55;;
8702;SDS011;9002;42.708;23.186;2024-03-23T07:00:05;16.25;;;9.40;;
8702;SDS011;9002;42.708;23.186;2024-03-23T07:02:35;18.88;;;9.73;;
8702;SDS011;9002;42.708;23.186;2024-03-23T07:05:01;13.95;;;8.20;;
8702;SDS011;9002;42.708;23.186;2024-03-23T07:07:28;20.92;;;8.23;;
8702;SDS011;9002;42.708;23.186;2024-03-23T07:09:55;15.93;;;8.60;;
8702;SDS011;9002;42.708;23.186;2024-03-23T07:12:22;17.75;;;9.05;;
8702;SDS011;9002;42.708;23.186;2024-03-23T07:14:48;13.25;;;7.60;;
8702;SDS011;9002;42.708;23.186;2024-03-23T07:17:16;14.77;;;8.60;;
8702;SDS011;9002;42.708;23.186;2024-03-23T07:19:43;15.57;;;8.43;;
8702;SDS011;9002;42.708;23.186;2024-03-23T07:22:10;15.50;;;9.07;;
8702;SDS011;9002;42.708;23.186;2024-03-23T07:24:36;17.05;;;9.07;;
8702;SDS011;9002;42.708;23.186;2024-03-23T07:29:35;12.65;;;7.35;;
8702;SDS011;9002;42.708;23.186;2024-03-23T07:32:02;15.13;;;7.80;;
8702;SDS011;9002;42.708;23.186;2024-03-23T07:34:29;14.57;;;7.68;;
8702;SDS011;9002;42.708;23.186;2024-03-23T07:36:56;15.38;;;7.35;;
8702;SDS011;9002;42.708;23.186;2024-03-23T07:39:22;13.00;;;7.07;;
8702;SDS011;9002;42.708;23.186;2024-03-23T07:41:50;13.50;;;7.85;;
8702;SDS011;9002;42.708;23.186;2024-03-23T07:44:15;19.45;;;8.80;;
8702;SDS011;9002;42.708;23.186;2024-03-23T07:46:42;15.45;;;8.93;;
8702;SDS011;9002;42.708;23.186;2024-03-23T07:49:08;14.07;;;7.47;;
8702;SDS011;9002;42.708;23.186;2024-03-23T07:51:43;13.02;;;8.05;;
8702;SDS011;9002;42.708;23.186;2024-03-23T07:54:10;16.08;;;8.30;;
8702;SDS011;9002;42.708;23.186;2024-03-23T07:56:36;11.32;;;7.00;;
8702;SDS011;9002;42.708;23.186;2024-03-23T07:59:08;11.70;;;7.03;;
8702;SDS011;9002;42.708;23.186;2024-03-23T08:01:39;17.63;;;9.18;;
8702;SDS011;9002;42.708;23.186;2024-03-23T08:04:05;12.07;;;8.15;;
8702;SDS011;9002;42.708;23.186;2024-03-23T08:06:32;13.68;;;8.13;;
8702;SDS011;9002;42.708;23.186;2024-03-23T08:08:59;15.00;;;7.85;;
8702;SDS011;9002;42.708;23.186;2024-03-23T08:11:27;14.88;;;8.00;;
8702;SDS011;9002;42.708;23.186;2024-03-23T08:13:54;15.18;;;7.95;;
8702;SDS011;9002;42.708;23.186;2024-03-23T08:16:22;12.05;;;7.10;;
8702;SDS011;9002;42.708;23.186;2024-03-23T08:18:51;11.43;;;6.90;;
8702;SDS011;9002;42.708;23.186;2024-03-23T08:21:18;13.65;;;7.72;;
8702;SDS011;9002;42.708;23.186;2024-03-23T08:23:45;12.23;;;8.00;;
8702;SDS011;9002;42.708;23.186;2024-03-23T08:26:14;13.63;;;7.28;;
8702;SDS011;9002;42.708;23.186;2024-03-23T08:28:41;13.68;;;7.88;;
8702;SDS011;9002;42.708;23.186;2024-03-23T08:31:09;13.80;;;7.28;;
8702;SDS011;9002;42.708;23.186;2024-03-23T08:33:35;14.38;;;8.45;;
8702;SDS011;9002;42.708;23.186;2024-03-23T08:36:05;14.43;;;7.43;;
8702;SDS011;9002;42.708;23.186;2024-03-23T08:38:32;15.85;;;8.05;;
8702;SDS011;9002;42.708;23.186;2024-03-23T08:41:00;14.98;;;8.93;;
8702;SDS011;9002;42.708;23.186;2024-03-23T08:43:41;16.00;;;8.95;;
8702;SDS011;9002;42.708;23.186;2024-03-23T08:46:09;13.85;;;8.48;;
8702;SDS011;9002;42.708;23.186;2024-03-23T08:48:36;16.90;;;8.73;;
8702;SDS011;9002;42.708;23.186;2024-03-23T08:51:04;14.60;;;9.43;;
8702;SDS011;9002;42.708;23.186;2024-03-23T08:53:33;18.98;;;9.45;;
8702;SDS011;9002;42.708;23.186;2024-03-23T08:56:00;15.75;;;9.48;;
8702;SDS011;9002;42.708;23.186;2024-03-23T08:58:28;14.32;;;9.35;;
8702;SDS011;9002;42.708;23.186;2024-03-23T09:03:32;16.10;;;8.10;;
8702;SDS011;9002;42.708;23.186;2024-03-23T09:06:00;16.23;;;9.10;;
8702;SDS011;9002;42.708;23.186;2024-03-23T09:08:27;23.90;;;10.05;;
8702;SDS011;9002;42.708;23.186;2024-03-23T09:10:54;15.50;;;9.30;;
8702;SDS011;9002;42.708;23.186;2024-03-23T09:13:20;15.68;;;10.52;;
8702;SDS011;9002;42.708;23.186;2024-03-23T09:15:48;14.55;;;9.13;;
8702;SDS011;9002;42.708;23.186;2024-03-23T09:18:15;13.77;;;7.68;;
8702;SDS011;9002;42.708;23.186;2024-03-23T09:20:44;14.45;;;8.50;;
8702;SDS011;9002;42.708;23.186;2024-03-23T09:23:10;15.82;;;9.13;;
8702;SDS011;9002;42.708;23.186;2024-03-23T09:25:37;14.82;;;8.85;;
8702;SDS011;9002;42.708;23.186;2024-03-23T09:28:04;15.07;;;8.88;;
8702;SDS011;9002;42.708;23.186;2024-03-23T09:30:34;18.23;;;9.57;;
8702;SDS011;9002;42.708;23.186;2024-03-23T09:33:00;16.73;;;9.77;;
8702;SDS011;9002;42.708;23.186;2024-03-23T09:35:29;15.30;;;9.32;;
8702;SDS011;9002;42.708;23.186;2024-03-23T09:37:56;17.45;;;9.00;;
8702;SDS011;9002;42.708;23.186;2024-03-23T09:40:23;13.32;;;9.15;;
8702;SDS011;9002;42.708;23.186;2024-03-23T09:42:49;17.70;;;10.07;;
8702;SDS011;9002;42.708;23.186;2024-03-23T09:45:17;14.20;;;9.57;;
8702;SDS011;9002;42.708;23.186;2024-03-23T09:47:46;14.45;;;8.50;;
8702;SDS011;9002;42.708;23.186;2024-03-23T09:50:15;12.98;;;8.73;;
8702;SDS011;9002;42.708;23.186;2024-03-23T09:52:42;15.50;;;9.82;;
8702;SDS011;9002;42.708;23.186;2024-03-23T09:55:10;16.35;;;10.32;;
8702;SDS011;9002;42.708;23.186;2024-03-23T09:57:36;16.35;;;8.70;;
8702;SDS011;9002;42.708;23.186;2024-03-23T10:00:03;14.35;;;8.65;;
8702;SDS011;9002;42.708;23.186;2024-03-23T10:02:30;12.40;;;8.30;;
8702;SDS011;9002;42.708;23.186;2024-03-23T10:04:57;12.27;;;8.02;;
8702;SDS011;9002;42.708;23.186;2024-03-23T10:07:23;13.40;;;7.88;;
8702;SDS011;9002;42.708;23.186;2024-03-23T10:09:50;14.38;;;8.05;;
8702;SDS011;9002;42.708;23.186;2024-03-23T10:14:45;13.02;;;6.80;;
8702;SDS011;9002;42.708;23.186;2024-03-23T10:19:40;13.50;;;6.70;;
8702;SDS011;9002;42.708;23.186;2024-03-23T10:22:08;12.73;;;6.47;;
8702;SDS011;9002;42.708;23.186;2024-03-23T10:24:34;10.82;;;6.78;;
8702;SDS011;9002;42.708;23.186;2024-03-23T10:27:01;9.32;;;6.38;;
8702;SDS011;9002;42.708;23.186;2024-03-23T10:29:29;14.35;;;6.20;;
8702;SDS011;9002;42.708;23.186;2024-03-23T10:32:07;10.55;;;6.53;;
8702;SDS011;9002;42.708;23.186;2024-03-23T10:34:34;12.82;;;7.22;;
8702;SDS011;9002;42.708;23.186;2024-03-23T10:37:21;12.30;;;6.88;;
8702;SDS011;9002;42.708;23.186;2024-03-23T10:39:48;12.02;;;6.47;;
8702;SDS011;9002;42.708;23.186;2024-03-23T10:42:14;12.00;;;6.47;;
8702;SDS011;9002;42.708;23.186;2024-03-23T10:44:43;11.73;;;6.57;;
8702;SDS011;9002;42.708;23.186;2024-03-23T10:47:09;11.02;;;6.15;;
8702;SDS011;9002;42.708;23.186;2024-03-23T10:49:36;9.00;;;5.53;;
8702;SDS011;9002;42.708;23.186;2024-03-23T10:52:02;8.40;;;5.43;;
8702;SDS011;9002;42.708;23.186;2024-03-23T10:54:30;9.80;;;6.03;;
8702;SDS011;9002;42.708;23.186;2024-03-23T10:59:27;12.18;;;6.43;;
8702;SDS011;9002;42.708;23.186;2024-03-23T11:01:56;9.48;;;6.53;;
8702;SDS011;9002;42.708;23.186;2024-03-23T11:04:30;11.23;;;6.10;;
8702;SDS011;9002;42.708;23.186;2024-03-23T11:06:57;10.20;;;6.32;;
8702;SDS011;9002;42.708;23.186;2024-03-23T11:09:41;11.32;;;7.15;;
8702;SDS011;9002;42.708;23.186;2024-03-23T11:12:26;11.57;;;7.53;;
8702;SDS011;9002;42.708;23.186;2024-03-23T11:14:56;12.63;;;7.03;;
8702;SDS011;9002;42.708;23.186;2024-03-23T11:17:26;11.07;;;7.03;;
8702;SDS011;9002;42.708;23.186;2024-03-23T11:19:54;12.40;;;7.53;;
8702;SDS011;9002;42.708;23.186;2024-03-23T11:25:12;8.00;;;5.25;;
8702;SDS011;9002;42.708;23.186;2024-03-23T11:27:42;13.48;;;8.57;;
8702;SDS011;9002;42.708;23.186;2024-03-23T11:30:13;15.05;;;8.57;;
8702;SDS011;9002;42.708;23.186;2024-03-23T11:32:43;12.85;;;8.20;;
8702;SDS011;9002;42.708;23.186;2024-03-23T11:35:11;14.25;;;6.10;;
8702;SDS011;9002;42.708;23.186;2024-03-23T11:38:00;11.40;;;5.88;;
8702;SDS011;9002;42.708;23.186;2024-03-23T11:40:28;11.27;;;6.63;;
8702;SDS011;9002;42.708;23.186;2024-03-23T11:45:22;7.32;;;4.45;;
8702;SDS011;9002;42.708;23.186;2024-03-23T11:48:00;10.38;;;6.22;;
8702;SDS011;9002;42.708;23.186;2024-03-23T11:50:28;12.48;;;6.38;;
8702;SDS011;9002;42.708;23.186;2024-03-23T11:53:05;7.93;;;4.82;;
8702;SDS011;9002;42.708;23.186;2024-03-23T11:55:52;7.57;;;4.57;;
8702;SDS011;9002;42.708;23.186;2024-03-23T11:58:19;7.70;;;4.50;;
8702;SDS011;9002;42.708;23.186;2024-03-23T12:00:50;12.85;;;8.73;;
8702;SDS011;9002;42.708;23.186;2024-03-23T12:03:19;7.60;;;5.00;;
8702;SDS011;9002;42.708;23.186;2024-03-23T12:05:47;8.63;;;4.55;;
8702;SDS011;9002;42.708;23.186;2024-03-23T12:08:15;9.43;;;6.03;;
8702;SDS011;9002;42.708;23.186;2024-03-23T12:10:44;9.63;;;5.00;;
8702;SDS011;9002;42.708;23.186;2024-03-23T12:15:54;9.10;;;5.35;;
8702;SDS011;9002;42.708;23.186;2024-03-23T12:18:24;7.85;;;4.43;;
8702;SDS011;9002;42.708;23.186;2024-03-23T12:20:50;7.00;;;4.05;;
8702;SDS011;9002;42.708;23.186;2024-03-23T12:23:17;7.82;;;4.10;;
8702;SDS011;9002;42.708;23.186;2024-03-23T12:25:43;5.40;;;3.92;;
8702;SDS011;9002;42.708;23.186;2024-03-23T12:28:10;3.65;;;2.33;;
8702;SDS011;9002;42.708;23.186;2024-03-23T12:30:38;3.45;;;1.83;;
8702;SDS011;9002;42.708;23.186;2024-03-23T12:33:06;5.80;;;3.70;;
8702;SDS011;9002;42.708;23.186;2024-03-23T12:35:33;7.95;;;4.28;;
8702;SDS011;9002;42.708;23.186;2024-03-23T12:38:00;3.88;;;2.92;;
8702;SDS011;9002;42.708;23.186;2024-03-23T12:40:26;1.35;;;1.20;;
8702;SDS011;9002;42.708;23.186;2024-03-23T12:42:54;2.20;;;1.02;;
8702;SDS011;9002;42.708;23.186;2024-03-23T12:45:21;3.33;;;0.85;;
8702;SDS011;9002;42.708;23.186;2024-03-23T12:50:28;5.35;;;3.95;;
8702;SDS011;9002;42.708;23.186;2024-03-23T12:52:57;2.47;;;0.90;;
8702;SDS011;9002;42.708;23.186;2024-03-23T12:55:23;1.60;;;1.20;;
8702;SDS011;9002;42.708;23.186;2024-03-23T12:57:49;3.13;;;1.85;;
8702;SDS011;9002;42.708;23.186;2024-03-23T13:00:16;2.00;;;1.08;;
8702;SDS011;9002;42.708;23.186;2024-03-23T13:02:43;3.95;;;1.45;;
8702;SDS011;9002;42.708;23.186;2024-03-23T13:05:10;1.42;;;0.93;;
8702;SDS011;9002;42.708;23.186;2024-03-23T13:07:37;2.60;;;1.20;;
8702;SDS011;9002;42.708;23.186;2024-03-23T13:10:05;2.88;;;1.33;;
8702;SDS011;9002;42.708;23.186;2024-03-23T13:12:32;2.40;;;1.58;;
8702;SDS011;9002;42.708;23.186;2024-03-23T13:14:58;3.70;;;1.38;;
8702;SDS011;9002;42.708;23.186;2024-03-23T13:17:26;2.05;;;1.08;;
8702;SDS011;9002;42.708;23.186;2024-03-23T13:19:53;2.58;;;1.27;;
8702;SDS011;9002;42.708;23.186;2024-03-23T13:22:21;2.90;;;1.08;;
8702;SDS011;9002;42.708;23.186;2024-03-23T13:27:16;2.00;;;0.75;;
8702;SDS011;9002;42.708;23.186;2024-03-23T13:29:42;1.88;;;0.85;;
8702;SDS011;9002;42.708;23.186;2024-03-23T13:32:11;2.70;;;1.20;;
8702;SDS011;9002;42.708;23.186;2024-03-23T13:34:37;2.38;;;1.05;;
8702;SDS011;9002;42.708;23.186;2024-03-23T13:37:04;1.95;;;1.30;;
8702;SDS011;9002;42.708;23.186;2024-03-23T13:39:32;2.15;;;0.93;;
8702;SDS011;9002;42.708;23.186;2024-03-23T13:41:59;1.88;;;1.45;;
8702;SDS011;9002;42.708;23.186;2024-03-23T13:44:30;1.48;;;1.08;;
8702;SDS011;9002;42.708;23.186;2024-03-23T13:46:57;3.97;;;1.48;;
8702;SDS011;9002;42.708;23.186;2024-03-23T13:49:26;4.10;;;1.13;;
8702;SDS011;9002;42.708;23.186;2024-03-23T13:51:54;2.83;;;1.42;;
8702;SDS011;9002;42.708;23.186;2024-03-23T13:54:22;3.33;;;1.40;;
8702;SDS011;9002;42.708;23.186;2024-03-23T13:56:49;2.40;;;1.15;;
8702;SDS011;9002;42.708;23.186;2024-03-23T14:01:44;3.08;;;1.67;;
8702;SDS011;9002;42.708;23.186;2024-03-23T14:04:10;4.15;;;2.13;;
8702;SDS011;9002;42.708;23.186;2024-03-23T14:06:37;3.00;;;1.30;;
8702;SDS011;9002;42.708;23.186;2024-03-23T14:09:04;2.85;;;1.67;;
8702;SDS011;9002;42.708;23.186;2024-03-23T14:11:34;3.85;;;1.75;;
8702;SDS011;9002;42.708;23.186;2024-03-23T14:14:03;2.33;;;1.33;;
8702;SDS011;9002;42.708;23.186;2024-03-23T14:16:30;1.52;;;1.40;;
8702;SDS011;9002;42.708;23.186;2024-03-23T14:18:58;2.30;;;0.93;;
8702;SDS011;9002;42.708;23.186;2024-03-23T15:28:08;6.40;;;2.20;;
8702;SDS011;9002;42.708;23.186;2024-03-23T15:30:35;3.22;;;2.33;;
8702;SDS011;9002;42.708;23.186;2024-03-23T15:33:01;3.58;;;2.45;;
8702;SDS011;9002;42.708;23.186;2024-03-23T15:35:28;5.15;;;2.55;;
8702;SDS011;9002;42.708;23.186;2024-03-23T15:40:21;2.45;;;1.75;;
8702;SDS011;9002;42.708;23.186;2024-03-23T15:42:48;3.53;;;1.85;;
8702;SDS011;9002;42.708;23.186;2024-03-23T15:45:17;3.08;;;2.20;;
8702;SDS011;9002;42.708;23.186;2024-03-23T15:47:43;3.55;;;1.95;;
8702;SDS011;9002;42.708;23.186;2024-03-23T15:50:10;2.97;;;1.70;;
8702;SDS011;9002;42.708;23.186;2024-03-23T15:55:03;5.45;;;3.13;;
8702;SDS011;9002;42.708;23.186;2024-03-23T15:57:31;3.95;;;2.25;;
8702;SDS011;9002;42.708;23.186;2024-03-23T15:59:59;4.55;;;2.80;;
8702;SDS011;9002;42.708;23.186;2024-03-23T16:04:54;4.25;;;2.65;;
8702;SDS011;9002;42.708;23.186;2024-03-23T16:07:20;5.40;;;2.70;;
8702;SDS011;9002;42.708;23.186;2024-03-23T16:09:47;3.35;;;2.45;;
8702;SDS011;9002;42.708;23.186;2024-03-23T16:12:13;3.75;;;2.05;;
8702;SDS011;9002;42.708;23.186;2024-03-23T16:14:40;6.10;;;3.10;;
8702;SDS011;9002;42.708;23.186;2024-03-23T16:17:06;2.25;;;1.35;;
8702;SDS011;9002;42.708;23.186;2024-03-23T16:19:34;3.88;;;1.45;;
8702;SDS011;9002;42.708;23.186;2024-03-23T16:22:00;3.35;;;1.60;;
8702;SDS011;9002;42.708;23.186;2024-03-23T16:24:30;4.63;;;2.58;;
8702;SDS011;9002;42.708;23.186;2024-03-23T16:26:56;3.83;;;1.67;;
8702;SDS011;9002;42.708;23.186;2024-03-23T16:29:23;3.03;;;1.80;;
8702;SDS011;9002;42.708;23.186;2024-03-23T16:31:49;3.00;;;1.70;;
8702;SDS011;9002;42.708;23.186;2024-03-23T16:34:16;2.42;;;1.88;;
8702;SDS011;9002;42.708;23.186;2024-03-23T16:36:43;4.45;;;2.28;;
8702;SDS011;9002;42.708;23.186;2024-03-23T16:39:10;2.55;;;1.58;;
8702;SDS011;9002;42.708;23.186;2024-03-23T16:41:36;5.68;;;2.17;;
8702;SDS011;9002;42.708;23.186;2024-03-23T16:44:04;11.15;;;2.85;;
8702;SDS011;9002;42.708;23.186;2024-03-23T16:46:30;3.65;;;2.17;;
8702;SDS011;9002;42.708;23.186;2024-03-23T16:48:57;3.72;;;2.17;;
8702;SDS011;9002;42.708;23.186;2024-03-23T16:51:23;5.22;;;1.80;;
8702;SDS011;9002;42.708;23.186;2024-03-23T16:53:51;4.90;;;2.75;;
8702;SDS011;9002;42.708;23.186;2024-03-23T16:56:17;7.65;;;2.58;;
8702;SDS011;9002;42.708;23.186;2024-03-23T16:58:44;5.05;;;2.65;;
8702;SDS011;9002;42.708;23.186;2024-03-23T17:01:12;4.88;;;2.40;;
8702;SDS011;9002;42.708;23.186;2024-03-23T17:03:45;8.07;;;2.22;;
8702;SDS011;9002;42.708;23.186;2024-03-23T17:06:13;4.43;;;2.63;;
8702;SDS011;9002;42.708;23.186;2024-03-23T17:08:41;5.80;;;3.17;;
8702;SDS011;9002;42.708;23.186;2024-03-23T17:11:10;4.45;;;2.58;;
8702;SDS011;9002;42.708;23.186;2024-03-23T17:13:37;5.57;;;2.83;;
8702;SDS011;9002;42.708;23.186;2024-03-23T17:16:03;4.80;;;2.55;;
8702;SDS011;9002;42.708;23.186;2024-03-23T17:18:31;7.68;;;4.28;;
8702;SDS011;9002;42.708;23.186;2024-03-23T17:20:57;8.25;;;5.13;;
8702;SDS011;9002;42.708;23.186;2024-03-23T17:23:30;5.80;;;3.63;;
8702;SDS011;9002;42.708;23.186;2024-03-23T17:25:56;4.07;;;3.03;;
8702;SDS011;9002;42.708;23.186;2024-03-23T17:28:26;6.90;;;3.10;;
8702;SDS011;9002;42.708;23.186;2024-03-23T17:30:52;11.18;;;5.43;;
8702;SDS011;9002;42.708;23.186;2024-03-23T17:33:19;7.68;;;4.00;;